createdAt,value
2022-12-08T00:02:32.192Z,23.33
2022-12-08T00:05:53.285Z,24.33
2022-12-08T00:09:14.031Z,26.87
2022-12-08T00:12:16.759Z,24.80
2022-12-08T00:15:18.972Z,26.42
2022-12-08T00:18:21.471Z,29.83
2022-12-08T00:21:23.671Z,27.33
2022-12-08T00:24:32.502Z,27.65
2022-12-08T00:27:34.662Z,25.02
2022-12-08T00:30:40.261Z,22.30
2022-12-08T00:33:42.435Z,29.83
2022-12-08T00:36:45.115Z,26.50
2022-12-08T00:39:47.286Z,29.67
2022-12-08T00:42:49.799Z,27.30
2022-12-08T00:45:52.084Z,30.77
2022-12-08T00:48:54.589Z,28.60
2022-12-08T00:51:56.990Z,24.40
2022-12-08T00:54:59.549Z,26.17
2022-12-08T00:58:01.701Z,29.35
2022-12-08T01:01:10.796Z,25.05
2022-12-08T01:04:15.975Z,25.02
2022-12-08T01:07:18.502Z,24.30
2022-12-08T01:10:22.050Z,22.15
2022-12-08T01:13:24.565Z,25.45
2022-12-08T01:16:29.252Z,22.08
2022-12-08T01:19:31.926Z,33.45
2022-12-08T01:22:35.323Z,27.27
2022-12-08T01:25:38.052Z,29.25
2022-12-08T01:28:40.912Z,32.72
2022-12-08T01:31:43.635Z,27.02
2022-12-08T01:34:45.754Z,28.50
2022-12-08T01:37:50.233Z,25.90
2022-12-08T01:40:52.392Z,24.70
2022-12-08T01:44:08.383Z,31.35
2022-12-08T01:47:12.062Z,21.42
2022-12-08T01:50:18.206Z,23.80
2022-12-08T01:53:26.647Z,23.12
2022-12-08T01:56:40.543Z,20.85
2022-12-08T01:59:48.601Z,28.65
2022-12-08T02:03:04.816Z,26.42
2022-12-08T02:06:08.209Z,29.30
2022-12-08T02:09:10.987Z,19.62
2022-12-08T02:12:13.779Z,21.70
2022-12-08T02:15:16.349Z,21.50
2022-12-08T02:18:40.858Z,22.62
2022-12-08T02:22:02.848Z,19.23
2022-12-08T02:25:17.608Z,22.40
2022-12-08T02:28:50.539Z,21.27
2022-12-08T02:32:02.537Z,26.83
2022-12-08T02:35:28.235Z,19.83
2022-12-08T02:38:47.798Z,27.15
2022-12-08T02:42:22.960Z,21.42
2022-12-08T02:45:33.878Z,18.85
2022-12-08T02:48:36.103Z,24.12
2022-12-08T02:51:38.598Z,19.80
2022-12-08T02:54:46.493Z,20.83
2022-12-08T02:57:55.463Z,21.52
2022-12-08T03:01:31.972Z,20.15
2022-12-08T03:04:46.990Z,20.90
2022-12-08T03:08:15.277Z,22.45
2022-12-08T03:11:24.458Z,23.75
2022-12-08T03:14:28.396Z,23.02
2022-12-08T03:17:32.009Z,21.17
2022-12-08T03:20:35.271Z,18.83
2022-12-08T03:23:39.410Z,20.42
2022-12-08T03:26:46.445Z,20.23
2022-12-08T03:29:53.297Z,16.12
2022-12-08T03:33:04.523Z,24.08
2022-12-08T03:36:09.368Z,23.27
2022-12-08T03:39:11.679Z,20.02
2022-12-08T03:42:14.171Z,19.98
2022-12-08T03:45:16.339Z,18.77
2022-12-08T03:48:18.797Z,22.90
2022-12-08T03:51:21.252Z,19.65
2022-12-08T03:54:24.390Z,20.23
2022-12-08T03:57:26.589Z,18.85
2022-12-08T04:00:29.152Z,22.05
2022-12-08T04:03:31.637Z,18.92
2022-12-08T04:06:33.841Z,18.80
2022-12-08T04:09:36.269Z,21.87
2022-12-08T04:12:38.435Z,19.25
2022-12-08T04:15:45.143Z,20.90
2022-12-08T04:18:47.389Z,24.95
2022-12-08T04:21:49.886Z,22.40
2022-12-08T04:24:52.044Z,24.30
2022-12-08T04:27:54.591Z,19.27
2022-12-08T04:30:56.842Z,21.62
2022-12-08T04:33:59.337Z,25.52
2022-12-08T04:37:01.472Z,22.15
2022-12-08T04:40:04.694Z,22.85
2022-12-08T04:43:07.070Z,19.23
2022-12-08T04:46:09.577Z,19.30
2022-12-08T04:49:11.898Z,25.25
2022-12-08T04:52:14.446Z,18.20
2022-12-08T04:55:17.777Z,23.00
2022-12-08T04:58:20.757Z,21.17
2022-12-08T05:01:22.996Z,21.33
2022-12-08T05:04:25.598Z,20.50
2022-12-08T05:07:27.981Z,16.65
2022-12-08T05:10:30.603Z,23.00
2022-12-08T05:13:33.034Z,23.05
2022-12-08T05:16:37.055Z,21.55
2022-12-08T05:19:39.272Z,19.27
2022-12-08T05:22:41.721Z,17.92
2022-12-08T05:25:43.825Z,25.98
2022-12-08T05:28:46.264Z,20.95
2022-12-08T05:31:48.517Z,20.45
2022-12-08T05:34:51.370Z,21.80
2022-12-08T05:37:53.997Z,20.05
2022-12-08T05:40:56.421Z,28.40
2022-12-08T05:43:58.665Z,20.67
2022-12-08T05:47:01.283Z,29.05
2022-12-08T05:50:04.243Z,30.37
2022-12-08T05:53:06.924Z,22.37
2022-12-08T05:56:09.020Z,22.00
2022-12-08T05:59:11.511Z,24.58
2022-12-08T06:02:13.958Z,22.42
2022-12-08T06:05:16.555Z,24.45
2022-12-08T06:08:18.817Z,24.87
2022-12-08T06:11:28.226Z,24.08
2022-12-08T06:14:30.393Z,30.65
2022-12-08T06:17:32.876Z,27.52
2022-12-08T06:20:35.349Z,30.35
2022-12-08T06:23:38.864Z,28.92
2022-12-08T06:26:41.504Z,24.08
2022-12-08T06:29:44.385Z,32.47
2022-12-08T06:32:46.522Z,25.67
2022-12-08T06:35:49.093Z,35.97
2022-12-08T06:38:51.734Z,29.75
2022-12-08T06:42:12.877Z,24.25
2022-12-08T06:45:17.394Z,35.30
2022-12-08T06:48:19.791Z,29.45
2022-12-08T06:51:23.522Z,36.50
2022-12-08T06:54:26.524Z,38.97
2022-12-08T06:57:28.845Z,35.47
2022-12-08T07:00:31.735Z,40.53
2022-12-08T07:03:35.967Z,39.95
2022-12-08T07:06:38.607Z,38.17
2022-12-08T07:09:40.818Z,36.20
2022-12-08T07:12:45.317Z,42.85
2022-12-08T07:15:47.532Z,42.75
2022-12-08T07:18:50.189Z,41.15
2022-12-08T07:21:52.312Z,37.15
2022-12-08T07:24:54.757Z,52.20
2022-12-08T07:27:56.960Z,42.50
2022-12-08T07:30:59.869Z,41.30
2022-12-08T07:34:02.160Z,42.65
2022-12-08T07:37:04.612Z,37.78
2022-12-08T07:40:09.378Z,47.13
2022-12-08T07:43:12.081Z,48.00
2022-12-08T07:46:16.501Z,54.70
2022-12-08T07:49:19.134Z,59.35
2022-12-08T07:52:21.303Z,62.47
2022-12-08T07:55:23.887Z,49.45
2022-12-08T07:58:26.321Z,57.40
2022-12-08T08:01:31.581Z,64.20
2022-12-08T08:04:34.069Z,51.08
2022-12-08T08:07:37.228Z,51.05
2022-12-08T08:10:39.728Z,57.20
2022-12-08T08:13:41.873Z,52.53
2022-12-08T08:16:46.838Z,52.22
2022-12-08T08:19:49.121Z,57.47
2022-12-08T08:22:52.453Z,49.45
2022-12-08T08:25:55.040Z,52.83
2022-12-08T08:28:59.073Z,51.50
2022-12-08T08:32:01.331Z,52.05
2022-12-08T08:35:04.869Z,58.55
2022-12-08T08:38:07.074Z,46.33
2022-12-08T08:41:10.899Z,47.28
2022-12-08T08:44:15.034Z,54.50
2022-12-08T08:47:17.539Z,46.45
2022-12-08T08:50:19.857Z,45.95
2022-12-08T08:53:23.130Z,53.58
2022-12-08T08:56:25.603Z,44.63
2022-12-08T08:59:28.549Z,45.42
2022-12-08T09:02:30.853Z,38.05
2022-12-08T09:05:33.332Z,35.88
2022-12-08T09:08:35.381Z,40.65
2022-12-08T09:11:38.193Z,40.80
2022-12-08T09:14:40.327Z,32.88
2022-12-08T09:17:42.715Z,52.03
2022-12-08T09:20:44.809Z,38.17
2022-12-08T09:23:47.172Z,36.25
2022-12-08T09:26:49.446Z,37.55
2022-12-08T09:29:51.845Z,45.05
2022-12-08T09:32:54.330Z,43.55
2022-12-08T09:35:56.870Z,37.90
2022-12-08T09:38:58.987Z,39.78
2022-12-08T09:42:04.789Z,49.33
2022-12-08T09:45:14.165Z,49.15
2022-12-08T09:48:19.995Z,45.22
2022-12-08T09:51:28.531Z,42.62
2022-12-08T09:54:35.972Z,45.47
2022-12-08T09:57:38.825Z,41.75
2022-12-08T10:00:41.298Z,45.30
2022-12-08T10:03:43.828Z,42.45
2022-12-08T10:07:04.648Z,35.75
2022-12-08T10:10:33.992Z,36.83
2022-12-08T10:14:07.182Z,37.85
2022-12-08T10:17:24.872Z,36.58
2022-12-08T10:20:35.978Z,32.13
2022-12-08T10:23:41.094Z,33.15
2022-12-08T10:26:43.455Z,28.80
2022-12-08T10:29:45.977Z,26.92
2022-12-08T10:32:49.947Z,26.37
2022-12-08T10:35:56.269Z,23.45
2022-12-08T10:38:58.596Z,23.92
2022-12-08T10:42:15.538Z,21.90
2022-12-08T10:45:28.068Z,23.27
2022-12-08T10:48:34.253Z,23.23
2022-12-08T10:51:41.884Z,29.17
2022-12-08T10:54:44.593Z,32.70
2022-12-08T10:57:50.716Z,32.00
2022-12-08T11:01:00.852Z,29.27
2022-12-08T11:04:06.326Z,31.67
2022-12-08T11:07:13.720Z,31.42
2022-12-08T11:10:18.960Z,28.48
2022-12-08T11:13:23.669Z,25.37
2022-12-08T11:16:25.992Z,24.37
2022-12-08T11:19:28.860Z,23.33
2022-12-08T11:22:39.741Z,25.42
2022-12-08T11:25:42.404Z,18.60
2022-12-08T11:28:44.747Z,22.00
2022-12-08T11:31:53.164Z,18.83
2022-12-08T11:35:02.537Z,25.00
2022-12-08T11:38:21.053Z,33.78
2022-12-08T11:41:36.674Z,22.08
2022-12-08T11:44:47.581Z,24.48
2022-12-08T11:48:06.133Z,22.73
2022-12-08T11:51:27.065Z,26.77
2022-12-08T11:54:58.232Z,23.83
2022-12-08T11:58:24.242Z,28.83
2022-12-08T12:01:26.960Z,21.65
2022-12-08T12:04:42.310Z,25.92
2022-12-08T12:07:59.643Z,23.85
2022-12-08T12:11:40.690Z,21.08
2022-12-08T12:15:07.447Z,20.92
2022-12-08T12:18:24.958Z,20.08
2022-12-08T12:21:36.242Z,22.33
2022-12-08T12:24:39.388Z,25.05
2022-12-08T12:27:41.882Z,23.70
2022-12-08T12:30:54.043Z,29.58
2022-12-08T12:34:06.547Z,23.67
2022-12-08T12:37:13.492Z,24.15
2022-12-08T12:40:20.906Z,27.75
2022-12-08T12:43:30.637Z,24.95
2022-12-08T12:46:54.491Z,25.92
2022-12-08T12:50:35.071Z,23.23
2022-12-08T12:53:37.137Z,25.00
2022-12-08T12:56:52.890Z,28.17
2022-12-08T12:59:56.189Z,27.77
2022-12-08T13:02:59.498Z,25.15
2022-12-08T13:06:02.759Z,32.65
2022-12-08T13:09:07.264Z,19.95
2022-12-08T13:12:23.022Z,27.27
2022-12-08T13:15:25.462Z,31.55
2022-12-08T13:18:41.860Z,35.58
2022-12-08T13:21:44.652Z,21.77
2022-12-08T13:24:46.885Z,23.70
2022-12-08T13:27:54.306Z,27.30
2022-12-08T13:31:00.894Z,25.27
2022-12-08T13:34:13.428Z,20.33
2022-12-08T13:37:52.373Z,30.50
2022-12-08T13:40:58.505Z,19.15
2022-12-08T13:45:03.706Z,19.98
2022-12-08T13:48:13.794Z,28.20
2022-12-08T13:53:22.295Z,26.45
2022-12-08T13:56:05.573Z,19.98
2022-12-08T13:58:03.675Z,28.00
2022-12-08T14:01:12.468Z,23.15
2022-12-08T14:04:42.621Z,22.87
2022-12-08T14:07:42.786Z,24.42
2022-12-08T14:10:47.511Z,22.10
2022-12-08T14:13:51.401Z,19.17
2022-12-08T14:16:57.582Z,18.67
2022-12-08T14:20:19.675Z,27.77
2022-12-08T14:23:22.121Z,34.55
2022-12-08T14:26:24.302Z,35.28
2022-12-08T14:29:45.472Z,33.15
2022-12-08T14:32:50.137Z,27.67
2022-12-08T14:35:55.918Z,24.00
2022-12-08T14:38:58.192Z,20.83
2022-12-08T14:42:00.998Z,21.75
2022-12-08T14:45:11.574Z,23.80
2022-12-08T14:48:25.875Z,21.85
2022-12-08T14:51:32.030Z,24.58
2022-12-08T14:54:34.686Z,20.45
2022-12-08T14:57:37.171Z,23.77
2022-12-08T15:00:46.322Z,23.27
2022-12-08T15:03:51.472Z,19.92
2022-12-08T15:07:02.799Z,24.77
2022-12-08T15:10:17.065Z,23.27
2022-12-08T15:13:20.994Z,24.63
2022-12-08T15:16:32.138Z,23.33
2022-12-08T15:19:34.657Z,36.83
2022-12-08T15:22:36.773Z,24.83
2022-12-08T15:25:39.260Z,24.12
2022-12-08T15:28:41.508Z,35.22
2022-12-08T15:31:44.071Z,25.90
2022-12-08T15:34:46.600Z,34.65
2022-12-08T15:37:49.103Z,27.02
2022-12-08T15:40:52.561Z,30.88
2022-12-08T15:43:54.993Z,26.75
2022-12-08T15:46:59.146Z,30.70
2022-12-08T15:50:04.593Z,24.50
2022-12-08T15:53:10.391Z,30.90
2022-12-08T15:56:29.349Z,27.10
2022-12-08T15:59:31.920Z,22.33
2022-12-08T16:02:49.467Z,30.52
2022-12-08T16:06:50.813Z,24.77
2022-12-08T16:09:34.542Z,28.42
2022-12-08T16:16:21.677Z,31.58
2022-12-08T16:19:24.313Z,26.52
2022-12-08T16:22:54.198Z,25.45
2022-12-08T16:26:20.381Z,32.40
2022-12-08T16:29:19.802Z,30.92
2022-12-08T16:32:23.684Z,25.42
2022-12-08T16:35:25.883Z,26.90
2022-12-08T16:38:28.501Z,24.83
2022-12-08T16:41:49.479Z,26.10
2022-12-08T16:44:51.978Z,25.33
2022-12-08T16:47:59.285Z,23.65
2022-12-08T16:51:04.480Z,27.23
2022-12-08T16:54:06.598Z,25.12
2022-12-08T16:57:09.210Z,24.00
2022-12-08T17:00:14.769Z,22.50
2022-12-08T17:03:17.624Z,22.17
2022-12-08T17:06:19.998Z,22.48
2022-12-08T17:09:22.463Z,21.73
2022-12-08T17:12:24.887Z,26.33
2022-12-08T17:15:27.355Z,20.83
2022-12-08T17:18:29.490Z,22.10
2022-12-08T17:21:32.546Z,24.23
2022-12-08T17:24:34.740Z,29.00
2022-12-08T17:27:38.010Z,24.08
2022-12-08T17:30:40.145Z,31.00
2022-12-08T17:33:42.960Z,28.12
2022-12-08T17:36:45.149Z,33.33
2022-12-08T17:39:47.604Z,31.95
2022-12-08T17:42:49.799Z,25.17
2022-12-08T17:45:52.294Z,22.00
2022-12-08T17:48:54.495Z,23.15
2022-12-08T17:52:03.276Z,23.75
2022-12-08T17:55:06.102Z,21.45
2022-12-08T17:58:08.556Z,21.20
2022-12-08T18:01:11.588Z,23.87
2022-12-08T18:04:14.122Z,27.62
2022-12-08T18:07:16.257Z,31.08
2022-12-08T18:10:19.486Z,22.13
2022-12-08T18:13:21.679Z,24.17
2022-12-08T18:16:26.821Z,18.60
2022-12-08T18:19:28.995Z,22.62
2022-12-08T18:22:31.372Z,24.10
2022-12-08T18:25:33.442Z,23.98
2022-12-08T18:28:36.217Z,30.83
2022-12-08T18:31:38.374Z,20.25
2022-12-08T18:34:41.575Z,24.23
2022-12-08T18:37:43.769Z,23.38
2022-12-08T18:40:46.230Z,23.05
2022-12-08T18:43:48.668Z,27.10
2022-12-08T18:46:51.314Z,26.05
2022-12-08T18:49:53.490Z,25.48
2022-12-08T18:52:55.944Z,22.25
2022-12-08T18:55:58.221Z,30.33
2022-12-08T18:59:04.458Z,31.70
2022-12-08T19:02:07.148Z,29.83
2022-12-08T19:05:12.505Z,24.20
2022-12-08T19:08:14.789Z,22.23
2022-12-08T19:11:22.350Z,24.20
2022-12-08T19:14:28.114Z,24.23
2022-12-08T19:17:31.273Z,23.73
2022-12-08T19:20:33.409Z,22.40
2022-12-08T19:23:36.261Z,21.85
2022-12-08T19:26:38.594Z,23.52
2022-12-08T19:29:41.017Z,24.48
2022-12-08T19:32:43.272Z,24.02
2022-12-08T19:35:52.209Z,24.70
2022-12-08T19:39:15.318Z,24.10
2022-12-08T19:42:38.248Z,23.62
2022-12-08T19:45:40.642Z,30.30
2022-12-08T19:48:43.552Z,21.67
2022-12-08T19:51:45.677Z,23.27
2022-12-08T19:54:48.156Z,21.85
2022-12-08T19:57:51.297Z,24.48
2022-12-08T20:00:53.809Z,23.52
2022-12-08T20:03:56.203Z,28.83
2022-12-08T20:06:58.415Z,21.40
2022-12-08T20:10:02.435Z,21.90
2022-12-08T20:13:24.756Z,23.08
2022-12-08T20:16:27.412Z,28.15
2022-12-08T20:19:29.655Z,23.48
2022-12-08T20:22:32.098Z,24.58
2022-12-08T20:25:34.771Z,21.15
2022-12-08T20:28:37.542Z,28.65
2022-12-08T20:31:39.757Z,38.85
2022-12-08T20:34:42.323Z,24.77
2022-12-08T20:37:44.495Z,24.85
2022-12-08T20:40:47.522Z,26.15
2022-12-08T20:43:50.079Z,28.17
2022-12-08T20:46:52.535Z,29.48
2022-12-08T20:49:54.815Z,30.55
2022-12-08T20:52:57.404Z,28.20
2022-12-08T20:55:59.847Z,30.75
2022-12-08T20:59:02.446Z,29.50
2022-12-08T21:02:04.868Z,30.58
2022-12-08T21:05:08.927Z,28.12
2022-12-08T21:08:11.255Z,28.42
2022-12-08T21:11:13.962Z,33.03
2022-12-08T21:14:16.200Z,31.98
2022-12-08T21:17:18.727Z,34.63
2022-12-08T21:20:23.727Z,31.10
2022-12-08T21:23:26.201Z,27.60
2022-12-08T21:26:28.836Z,32.28
2022-12-08T21:29:31.591Z,39.85
2022-12-08T21:32:34.503Z,35.78
2022-12-08T21:35:37.604Z,33.17
2022-12-08T21:38:40.552Z,31.92
2022-12-08T21:42:01.943Z,32.60
2022-12-08T21:45:04.275Z,33.33
2022-12-08T21:48:11.500Z,34.22
2022-12-08T21:51:14.236Z,34.53
2022-12-08T21:54:19.200Z,32.80
2022-12-08T21:57:21.879Z,33.75
2022-12-08T22:00:24.774Z,30.30
2022-12-08T22:03:28.110Z,36.30
2022-12-08T22:06:30.813Z,36.10
2022-12-08T22:09:33.429Z,39.70
2022-12-08T22:12:36.904Z,32.70
2022-12-08T22:15:39.629Z,34.67
2022-12-08T22:18:42.515Z,40.85
2022-12-08T22:21:45.083Z,33.42
2022-12-08T22:24:47.533Z,35.45
2022-12-08T22:27:50.142Z,35.70
2022-12-08T22:30:52.459Z,36.53
2022-12-08T22:33:55.015Z,37.10
2022-12-08T22:36:57.140Z,34.50
2022-12-08T22:39:59.796Z,34.58
2022-12-08T22:43:01.886Z,32.65
2022-12-08T22:46:12.160Z,34.40
2022-12-08T22:49:14.923Z,36.17
2022-12-08T22:52:17.380Z,38.38
2022-12-08T22:55:19.515Z,38.67
2022-12-08T22:58:22.277Z,40.47
2022-12-08T23:01:29.053Z,34.67
2022-12-08T23:04:32.054Z,37.38
2022-12-08T23:07:34.356Z,36.85
2022-12-08T23:10:36.812Z,34.78
2022-12-08T23:13:39.895Z,37.65
2022-12-08T23:16:42.650Z,41.42
2022-12-08T23:19:44.866Z,34.78
2022-12-08T23:22:47.393Z,35.72
2022-12-08T23:25:49.750Z,36.50
2022-12-08T23:28:52.766Z,37.45
2022-12-08T23:31:55.086Z,41.20
2022-12-08T23:34:57.889Z,38.65
2022-12-08T23:38:00.315Z,34.22
2022-12-08T23:41:05.590Z,41.67
2022-12-08T23:44:09.119Z,37.97
2022-12-08T23:47:11.910Z,39.00
2022-12-08T23:50:14.085Z,38.33
2022-12-08T23:53:17.009Z,38.83
2022-12-08T23:56:21.065Z,41.80
2022-12-08T23:59:24.770Z,45.80
